LIMF Airport Information

Runway Information
Runway 18 Length 10827 ft width 197 ft
Elevation 981 ft Threshold 2378 ft Heading 183
Runway 36 Length 10827 ft Width 197 ft
Elevation 933 ft Threshold 1148 ft Heading 3
Airport Frequencies
Type APP Name APP Frequency 129.275 MHZ
Type APP Name APP Frequency 23.44 MHZ
Type ATIS Name ATIS Frequency 120.475 MHZ
Type GND Name GND Frequency 121.7 MHZ
Type TWR Name TWR Frequency 118.5 MHZ
Airport Navaids
Type TACAN Name Caselle Frequency 109500 KHZ
Type NDB Name Caselle Frequency 357 KHZ
Type VOR-DME Name Caselle Frequency 116750 KHZ
Type VOR-DME Name Torino Frequency 114500 KHZ
Type NDB Name Torino Frequency 393 KHZ
Airport Weather Information & NOTAM
ADDS - METARS form results

(1616 UTC 26 September 2022)
Data provider http://aviationweather.gov/metar/data/
 
METAR text: LIMF 261550Z VRB02KT 9999 SCT150 21/09 Q1004
Conditions at: LIMF (TORINO/CASELLE , IT) observed 1550 UTC 26 September 2022
Temperature: 21.0°C (70°F)
Dewpoint: 9.0°C (48°F) [RH = 46%]
Pressure (altimeter): 29.65 inches Hg (1004.0 mb)
Winds: variable direction winds at 2 MPH (2 knots; 1.0 m/s)
Visibility: 6 or more miles (10+ km)
Ceiling: at least 12,000 feet AGL
Clouds: scattered clouds at 15000 feet AGL
Weather: no significant weather observed at this time

METAR text: LIMF 261520Z VRB02KT 9999 FEW050 SCT150 21/09 Q1004
Conditions at: LIMF (TORINO/CASELLE , IT) observed 1520 UTC 26 September 2022
Temperature: 21.0°C (70°F)
Dewpoint: 9.0°C (48°F) [RH = 46%]
Pressure (altimeter): 29.65 inches Hg (1004.0 mb)
Winds: variable direction winds at 2 MPH (2 knots; 1.0 m/s)
Visibility: 6 or more miles (10+ km)
Ceiling: at least 12,000 feet AGL
Clouds: few clouds at 5000 feet AGL
scattered clouds at 15000 feet AGL
Weather: no significant weather observed at this time

Forecast for: LIMF (TORINO/CASELLE , IT)
Text: TAF LIMF 261100Z 2612/2712 VRB05KT 9999 FEW050
Forecast period: 1200 UTC 26 September 2022 to 1200 UTC 27 September 2022
Forecast type: FROM: standard forecast or significant change
Winds: variable direction winds at 6 MPH (5 knots; 2.6 m/s)
Visibility: 6 or more miles (10+ km)
Ceiling: at least 12,000 feet AGL
Clouds: few clouds at 5000 feet AGL
Weather: no significant weather forecast for this period